createdAt,value
2022-10-26T00:00:41.359Z,15.79
2022-10-26T00:03:58.797Z,15.74
2022-10-26T00:06:35.312Z,15.67
2022-10-26T00:09:28.659Z,15.59
2022-10-26T00:12:08.768Z,15.46
2022-10-26T00:15:53.418Z,15.46
2022-10-26T00:18:23.771Z,15.42
2022-10-26T00:21:24.175Z,15.38
2022-10-26T00:23:53.515Z,15.37
2022-10-26T00:26:30.827Z,15.31
2022-10-26T00:29:05.625Z,15.24
2022-10-26T00:39:15.636Z,14.90
2022-10-26T00:41:48.611Z,14.83
2022-10-26T00:45:20.310Z,14.85
2022-10-26T00:47:57.824Z,14.80
2022-10-26T00:50:51.162Z,14.69
2022-10-26T00:53:27.588Z,14.66
2022-10-26T00:56:23.446Z,14.54
2022-10-26T00:59:26.553Z,14.48
2022-10-26T01:02:03.319Z,14.43
2022-10-26T01:04:37.157Z,14.52
2022-10-26T01:07:55.456Z,14.58
2022-10-26T01:10:32.552Z,14.55
2022-10-26T01:13:29.710Z,14.52
2022-10-26T01:16:41.961Z,14.49
2022-10-26T01:20:08.771Z,14.28
2022-10-26T01:22:41.902Z,14.27
2022-10-26T01:26:00.147Z,14.28
2022-10-26T01:28:44.124Z,14.49
2022-10-26T01:35:03.908Z,14.47
2022-10-26T01:37:40.172Z,14.47
2022-10-26T01:43:49.614Z,14.45
2022-10-26T01:46:27.199Z,14.48
2022-10-26T01:52:37.969Z,14.49
2022-10-26T01:59:43.873Z,14.47
2022-10-26T02:02:59.331Z,14.46
2022-10-26T02:06:14.549Z,14.41
2022-10-26T02:09:03.949Z,14.37
2022-10-26T02:11:41.588Z,14.38
2022-10-26T02:14:47.382Z,14.36
2022-10-26T02:17:50.620Z,14.37
2022-10-26T02:21:03.218Z,14.31
2022-10-26T02:27:22.919Z,14.26
2022-10-26T02:30:00.040Z,14.26
2022-10-26T02:32:47.743Z,14.27
2022-10-26T02:35:31.060Z,14.27
2022-10-26T02:38:11.448Z,14.22
2022-10-26T02:41:07.683Z,14.20
2022-10-26T02:43:48.554Z,14.22
2022-10-26T02:47:12.045Z,14.23
2022-10-26T02:49:44.835Z,14.22
2022-10-26T02:52:30.695Z,14.18
2022-10-26T02:55:19.486Z,14.20
2022-10-26T02:58:41.058Z,14.16
2022-10-26T03:01:10.969Z,14.16
2022-10-26T03:03:45.870Z,14.17
2022-10-26T03:09:51.414Z,14.23
2022-10-26T03:12:30.232Z,14.22
2022-10-26T03:15:02.508Z,14.21
2022-10-26T03:18:45.691Z,14.24
2022-10-26T03:21:22.937Z,14.31
2022-10-26T03:24:00.106Z,14.33
2022-10-26T03:26:38.608Z,14.35
2022-10-26T03:29:10.714Z,14.38
2022-10-26T03:32:11.800Z,14.34
2022-10-26T03:34:42.226Z,14.27
2022-10-26T03:37:40.553Z,14.35
2022-10-26T03:40:59.112Z,14.29
2022-10-26T03:43:31.260Z,14.45
2022-10-26T03:45:59.821Z,14.46
2022-10-26T03:48:55.826Z,14.47
2022-10-26T03:51:51.907Z,14.50
2022-10-26T03:54:26.836Z,14.49
2022-10-26T03:57:19.964Z,14.47
2022-10-26T04:03:10.083Z,14.43
2022-10-26T04:05:47.385Z,14.37
2022-10-26T04:08:41.610Z,14.33
2022-10-26T04:11:36.910Z,14.30
2022-10-26T04:14:11.110Z,14.13
2022-10-26T04:17:07.063Z,14.06
2022-10-26T04:20:12.493Z,14.02
2022-10-26T04:23:31.047Z,14.03
2022-10-26T04:26:09.030Z,14.00
2022-10-26T04:29:55.334Z,14.10
2022-10-26T04:32:48.438Z,14.07
2022-10-26T04:35:24.358Z,14.03
2022-10-26T04:37:55.825Z,14.02
2022-10-26T04:40:33.303Z,14.02
2022-10-26T04:43:09.772Z,14.01
2022-10-26T04:46:14.417Z,13.99
2022-10-26T04:49:27.764Z,13.92
2022-10-26T04:52:00.529Z,13.96
2022-10-26T04:54:55.572Z,13.96
2022-10-26T04:57:27.944Z,13.95
2022-10-26T05:00:05.857Z,13.95
2022-10-26T05:03:00.345Z,13.95
2022-10-26T05:09:16.750Z,13.86
2022-10-26T05:12:14.043Z,13.82
2022-10-26T05:14:47.719Z,13.80
2022-10-26T05:17:17.734Z,13.78
2022-10-26T05:19:54.680Z,13.74
2022-10-26T05:22:56.569Z,13.74
2022-10-26T05:25:29.030Z,13.70
2022-10-26T05:28:04.197Z,13.68
2022-10-26T05:30:58.071Z,13.62
2022-10-26T05:37:18.276Z,13.47
2022-10-26T05:40:15.107Z,13.57
2022-10-26T05:42:47.984Z,13.54
2022-10-26T05:45:21.373Z,13.54
2022-10-26T05:47:51.363Z,13.56
2022-10-26T05:50:45.944Z,13.56
2022-10-26T05:54:05.139Z,13.60
2022-10-26T06:00:26.126Z,13.63
2022-10-26T06:03:17.215Z,13.52
2022-10-26T06:12:39.980Z,13.44
2022-10-26T06:15:48.723Z,13.45
2022-10-26T06:18:31.184Z,13.55
2022-10-26T06:21:21.617Z,13.63
2022-10-26T06:24:56.157Z,13.88
2022-10-26T06:27:42.128Z,13.99
2022-10-26T06:30:12.301Z,14.06
2022-10-26T06:43:11.134Z,14.17
2022-10-26T06:46:15.108Z,14.18
2022-10-26T06:49:10.978Z,14.32
2022-10-26T06:52:18.911Z,14.49
2022-10-26T06:54:55.170Z,14.52
2022-10-26T06:57:40.441Z,14.64
2022-10-26T07:00:29.500Z,14.66
2022-10-26T07:03:03.432Z,14.75
2022-10-26T07:08:54.297Z,14.96
2022-10-26T07:11:25.225Z,15.05
2022-10-26T07:13:59.462Z,15.16
2022-10-26T07:16:58.162Z,15.26
2022-10-26T07:19:28.699Z,15.37
2022-10-26T07:21:59.605Z,15.48
2022-10-26T07:24:32.703Z,15.65
2022-10-26T07:27:04.232Z,15.70
2022-10-26T07:30:02.886Z,15.82
2022-10-26T07:33:02.548Z,15.99
2022-10-26T07:36:00.357Z,16.26
2022-10-26T07:38:57.806Z,16.34
2022-10-26T07:41:56.795Z,16.36
2022-10-26T07:44:27.845Z,16.56
2022-10-26T07:47:22.037Z,16.62
2022-10-26T07:50:15.451Z,16.88
2022-10-26T07:53:10.178Z,16.89
2022-10-26T07:55:42.814Z,16.98
2022-10-26T07:58:15.256Z,17.27
2022-10-26T08:04:05.116Z,17.49
2022-10-26T08:06:37.735Z,17.66
2022-10-26T08:09:06.566Z,17.81
2022-10-26T08:11:38.934Z,17.93
2022-10-26T08:14:11.369Z,18.03
2022-10-26T08:17:35.063Z,18.13
2022-10-26T08:20:14.564Z,18.28
2022-10-26T08:23:09.306Z,18.40
2022-10-26T08:26:08.165Z,18.50
2022-10-26T08:28:44.026Z,18.61
2022-10-26T08:31:19.587Z,18.67
2022-10-26T08:34:16.143Z,18.74
2022-10-26T08:36:51.571Z,18.85
2022-10-26T08:39:27.193Z,18.94
2022-10-26T08:42:03.597Z,19.05
2022-10-26T08:44:40.044Z,19.21
2022-10-26T08:50:27.991Z,19.42
2022-10-26T08:53:12.779Z,19.50
2022-10-26T08:56:13.106Z,19.60
2022-10-26T08:59:15.569Z,19.67
2022-10-26T09:02:39.119Z,19.71
2022-10-26T09:05:45.575Z,19.67
2022-10-26T09:08:46.260Z,19.81
2022-10-26T09:12:03.332Z,19.97
2022-10-26T09:15:13.147Z,20.11
2022-10-26T09:17:53.968Z,20.35
2022-10-26T09:20:47.466Z,20.45
2022-10-26T09:24:07.234Z,20.59
2022-10-26T09:27:13.590Z,20.54
2022-10-26T09:29:45.268Z,20.60
2022-10-26T09:32:43.138Z,20.66
2022-10-26T09:35:18.965Z,20.78
2022-10-26T09:37:51.780Z,21.02
2022-10-26T09:40:36.163Z,21.18
2022-10-26T09:46:08.373Z,21.36
2022-10-26T09:49:07.587Z,21.44
2022-10-26T09:51:41.998Z,21.54
2022-10-26T09:54:19.335Z,21.60
2022-10-26T09:57:16.726Z,21.65
2022-10-26T09:59:58.615Z,21.72
2022-10-26T10:05:56.113Z,21.78
2022-10-26T10:08:29.157Z,21.80
2022-10-26T10:14:29.709Z,21.92
2022-10-26T10:20:58.218Z,21.99
2022-10-26T10:23:34.880Z,22.01
2022-10-26T10:26:34.416Z,22.12
2022-10-26T10:29:05.444Z,22.28
2022-10-26T10:31:35.831Z,22.37
2022-10-26T10:37:27.661Z,22.42
2022-10-26T10:40:02.683Z,22.57
2022-10-26T10:42:35.912Z,22.66
2022-10-26T10:45:34.420Z,22.60
2022-10-26T10:48:39.460Z,22.55
2022-10-26T10:51:15.821Z,22.65
2022-10-26T10:53:54.915Z,22.82
2022-10-26T10:56:55.507Z,22.98
2022-10-26T10:59:54.285Z,23.09
2022-10-26T11:02:55.991Z,23.12
2022-10-26T11:12:33.104Z,23.33
2022-10-26T11:18:22.641Z,23.45
2022-10-26T11:27:24.121Z,23.46
2022-10-26T11:30:19.891Z,23.59
2022-10-26T11:32:58.116Z,23.70
2022-10-26T11:35:32.652Z,23.85
2022-10-26T11:38:28.127Z,24.05
2022-10-26T11:41:17.437Z,24.32
2022-10-26T11:43:46.579Z,24.56
2022-10-26T11:46:20.199Z,24.61
2022-10-26T11:48:57.911Z,24.80
2022-10-26T11:51:41.741Z,24.93
2022-10-26T11:54:30.236Z,25.09
2022-10-26T11:57:05.466Z,25.29
2022-10-26T11:59:43.034Z,25.55
2022-10-26T12:08:30.180Z,26.42
2022-10-26T12:11:05.286Z,26.41
2022-10-26T12:13:59.235Z,26.26
2022-10-26T12:20:11.770Z,25.83
2022-10-26T12:22:44.121Z,25.65
2022-10-26T12:25:23.519Z,25.36
2022-10-26T12:28:43.411Z,25.05
2022-10-26T12:31:48.476Z,24.73
2022-10-26T12:39:11.486Z,24.07
2022-10-26T12:42:06.490Z,23.82
2022-10-26T12:45:30.387Z,23.66
2022-10-26T12:48:39.707Z,23.54
2022-10-26T12:52:09.624Z,23.52
2022-10-26T12:54:46.253Z,23.55
2022-10-26T13:05:21.931Z,25.13
2022-10-26T13:08:29.405Z,25.75
2022-10-26T13:11:38.685Z,26.29
2022-10-26T13:15:26.864Z,26.73
2022-10-26T13:18:42.983Z,26.85
2022-10-26T13:21:48.250Z,26.80
2022-10-26T13:24:17.411Z,26.84
2022-10-26T13:27:40.010Z,26.67
2022-10-26T13:30:49.334Z,26.41
2022-10-26T13:33:53.128Z,26.29
2022-10-26T13:36:31.765Z,26.05
2022-10-26T13:39:59.956Z,25.78
2022-10-26T13:46:03.174Z,25.16
2022-10-26T13:55:43.424Z,24.69
2022-10-26T14:01:30.606Z,24.53
2022-10-26T14:04:29.283Z,24.44
2022-10-26T14:07:14.651Z,24.37
2022-10-26T14:10:03.412Z,24.28
2022-10-26T14:13:27.204Z,24.12
2022-10-26T14:19:06.343Z,23.79
2022-10-26T14:21:53.427Z,23.66
2022-10-26T14:24:45.839Z,23.55
2022-10-26T14:27:34.213Z,23.44
2022-10-26T14:30:32.172Z,23.37
2022-10-26T14:33:50.454Z,23.31
2022-10-26T14:36:31.481Z,23.17
2022-10-26T14:39:32.036Z,23.07
2022-10-26T14:42:20.837Z,23.03
2022-10-26T14:44:55.227Z,22.88
2022-10-26T14:47:35.382Z,22.58
2022-10-26T14:50:47.299Z,22.50
2022-10-26T14:53:21.521Z,22.38
2022-10-26T14:55:58.191Z,22.32
2022-10-26T14:58:35.333Z,22.31
2022-10-26T15:01:48.849Z,22.24
2022-10-26T15:04:39.652Z,22.19
2022-10-26T15:07:43.724Z,22.26
2022-10-26T15:10:52.201Z,22.15
2022-10-26T15:13:51.294Z,22.04
2022-10-26T15:16:53.719Z,21.96
2022-10-26T15:19:28.076Z,21.80
2022-10-26T15:29:40.606Z,21.26
2022-10-26T15:39:30.186Z,20.87
2022-10-26T15:42:02.420Z,20.72
2022-10-26T15:44:34.621Z,20.63
2022-10-26T15:51:46.094Z,20.44
2022-10-26T15:54:42.375Z,20.32
2022-10-26T15:57:21.557Z,20.36
2022-10-26T15:59:56.858Z,20.17
2022-10-26T16:08:06.208Z,20.08
2022-10-26T16:10:44.567Z,19.98
2022-10-26T16:13:15.137Z,19.92
2022-10-26T16:16:14.432Z,19.78
2022-10-26T16:18:44.879Z,19.74
2022-10-26T16:21:38.609Z,19.68
2022-10-26T16:24:14.052Z,19.43
2022-10-26T16:27:07.906Z,19.42
2022-10-26T16:29:49.712Z,19.37
2022-10-26T16:33:12.759Z,19.26
2022-10-26T16:35:45.996Z,19.13
2022-10-26T16:39:05.977Z,18.99
2022-10-26T16:42:03.794Z,18.81
2022-10-26T16:45:48.811Z,18.70
2022-10-26T16:48:48.136Z,18.58
2022-10-26T16:51:28.309Z,18.48
2022-10-26T16:54:26.496Z,18.41
2022-10-26T16:57:20.793Z,18.30
2022-10-26T17:00:19.661Z,18.21
2022-10-26T17:05:51.793Z,18.08
2022-10-26T17:08:27.196Z,18.01
2022-10-26T17:15:19.697Z,17.83
2022-10-26T17:18:19.857Z,17.75
2022-10-26T17:20:54.202Z,17.66
2022-10-26T17:23:28.022Z,17.61
2022-10-26T17:26:05.396Z,17.56
2022-10-26T17:28:36.246Z,17.50
2022-10-26T17:31:12.547Z,17.47
2022-10-26T17:34:31.491Z,17.41
2022-10-26T17:40:04.556Z,17.23
2022-10-26T17:42:37.999Z,17.16
2022-10-26T17:45:39.765Z,17.13
2022-10-26T17:48:12.122Z,17.07
2022-10-26T17:50:46.456Z,17.04
2022-10-26T17:53:15.402Z,17.01
2022-10-26T17:56:15.104Z,16.99
2022-10-26T18:01:51.334Z,16.89
2022-10-26T18:04:26.565Z,16.83
2022-10-26T18:07:24.315Z,16.77
2022-10-26T18:09:52.798Z,16.70
2022-10-26T18:12:26.567Z,16.64
2022-10-26T18:15:25.529Z,16.60
2022-10-26T18:18:06.402Z,16.54
2022-10-26T18:21:07.190Z,16.50
2022-10-26T18:24:03.963Z,16.43
2022-10-26T18:26:39.023Z,16.37
2022-10-26T18:29:14.002Z,16.32
2022-10-26T18:31:49.818Z,16.25
2022-10-26T18:34:24.528Z,16.22
2022-10-26T18:36:57.313Z,16.19
2022-10-26T18:39:52.392Z,16.15
2022-10-26T18:42:31.690Z,16.10
2022-10-26T18:48:34.740Z,15.76
2022-10-26T18:51:34.056Z,15.68
2022-10-26T18:58:45.364Z,15.56
2022-10-26T19:01:43.491Z,15.51
2022-10-26T19:05:05.574Z,15.42
2022-10-26T19:07:41.663Z,15.35
2022-10-26T19:10:46.208Z,15.25
2022-10-26T19:13:15.563Z,15.18
2022-10-26T19:15:50.398Z,15.12
2022-10-26T19:18:28.947Z,15.12
2022-10-26T19:21:31.122Z,15.17
2022-10-26T19:24:40.353Z,15.25
2022-10-26T19:27:12.361Z,15.26
2022-10-26T19:29:47.684Z,15.24
2022-10-26T19:32:41.849Z,15.21
2022-10-26T19:35:19.724Z,15.01
2022-10-26T19:37:52.543Z,14.92
2022-10-26T19:40:49.115Z,14.86
2022-10-26T19:43:47.311Z,14.90
2022-10-26T19:50:29.376Z,14.90
2022-10-26T19:53:22.897Z,14.74
2022-10-26T19:56:43.251Z,14.72
2022-10-26T20:00:02.304Z,14.73
2022-10-26T20:02:40.474Z,14.66
2022-10-26T20:05:11.752Z,14.63
2022-10-26T20:08:08.664Z,14.65
2022-10-26T20:10:46.520Z,14.55
2022-10-26T20:14:07.349Z,14.50
2022-10-26T20:16:42.126Z,14.48
2022-10-26T20:22:39.675Z,14.40
2022-10-26T20:25:12.252Z,14.54
2022-10-26T20:27:45.380Z,14.55
2022-10-26T20:31:03.795Z,14.50
2022-10-26T20:33:57.382Z,14.52
2022-10-26T20:36:35.110Z,14.48
2022-10-26T20:39:21.513Z,14.44
2022-10-26T20:42:21.946Z,14.37
2022-10-26T20:45:43.051Z,14.33
2022-10-26T20:48:47.600Z,14.18
2022-10-26T21:01:47.960Z,14.24
2022-10-26T21:04:43.921Z,14.21
2022-10-26T21:07:26.429Z,14.19
2022-10-26T21:10:47.473Z,14.19
2022-10-26T21:14:16.528Z,14.16
2022-10-26T21:17:20.141Z,14.12
2022-10-26T21:21:04.563Z,14.10
2022-10-26T21:23:40.229Z,14.03
2022-10-26T21:26:39.517Z,14.02
2022-10-26T21:29:08.379Z,14.01
2022-10-26T21:31:40.494Z,13.98
2022-10-26T21:34:18.270Z,13.98
2022-10-26T21:37:10.927Z,13.97
2022-10-26T21:40:06.522Z,13.93
2022-10-26T21:42:59.709Z,13.91
2022-10-26T21:46:23.042Z,13.90
2022-10-26T21:52:10.118Z,13.83
2022-10-26T21:54:43.422Z,13.81
2022-10-26T22:01:33.666Z,13.74
2022-10-26T22:04:28.314Z,13.73
2022-10-26T22:07:01.664Z,13.66
2022-10-26T22:09:45.022Z,13.64
2022-10-26T22:13:00.442Z,13.62
2022-10-26T22:19:02.639Z,13.52
2022-10-26T22:21:39.236Z,13.50
2022-10-26T22:27:40.075Z,13.47
2022-10-26T22:30:17.692Z,13.43
2022-10-26T22:33:13.695Z,13.38
2022-10-26T22:36:11.493Z,13.36
2022-10-26T22:39:08.580Z,13.34
2022-10-26T22:42:05.220Z,13.30
2022-10-26T22:45:02.693Z,13.30
2022-10-26T22:47:37.228Z,13.30
2022-10-26T22:50:34.147Z,13.29
2022-10-26T22:53:56.456Z,13.25
2022-10-26T22:56:50.954Z,13.17
2022-10-26T23:00:09.234Z,13.18
2022-10-26T23:06:44.802Z,13.13
2022-10-26T23:09:40.470Z,13.12
2022-10-26T23:12:35.242Z,13.12
2022-10-26T23:18:39.119Z,13.06
2022-10-26T23:21:34.706Z,13.03
2022-10-26T23:24:15.287Z,13.02
2022-10-26T23:27:10.076Z,13.01
2022-10-26T23:30:53.972Z,12.99
2022-10-26T23:33:28.045Z,12.94
2022-10-26T23:36:10.726Z,12.92
2022-10-26T23:38:39.343Z,12.88
2022-10-26T23:41:45.513Z,12.88
2022-10-26T23:44:43.172Z,12.87
2022-10-26T23:47:13.005Z,12.85
2022-10-26T23:49:52.943Z,12.88
2022-10-26T23:53:17.915Z,12.87
2022-10-26T23:56:38.230Z,12.83
2022-10-26T23:59:16.863Z,12.80
